Akaska, South Dakota
Current Conditions -  °F | °C
As of 11:52 AM on Sunday 25 Jan 2015 (Local Time) from KMBG Reporting Station
Overcast Overcast  
Wind Chill:   Ceiling: 2400
Heat Index:   Visibility: 10mi
Dew Point:   Wind: 6mph
Humidity: 82%   Direction: 310°NW
Pressure: 29.98"   Gusts: NA
Location:  45.33°N, 100.12°W
Report Text: KMBG 251752Z AUTO 31005KT 10SM OVC024 04/01 A2998 RMK AO2 SLP166 T00390011 10039 20028 50005
Loading
Personal Weather Stations






























Interactive Weather Map New forecast layout! Learn more

10-Day Weather Forecast

Advertisements
Track Severe Weather on mobile